LFBO

Toulouse-Blagnac Airport

Toulouse/Blagnac, France
TAF AMD LFBO 210946Z 2109/2212 VRB03KT 6000 OVC005 BECMG 2109/2110 BKN013 BECMG 2110/2112 27010KT SCT030 TEMPO 2112/2116 SCT040TCU BECMG 2116/2118 CAVOK PROB40 TEMPO 2202/2207 BKN012
Issued Valid From Valid To
Jun-21 @ 09:46 UTC
(13 minutes ago)
Jun-21 @ 09:00 UTC
(59 minutes ago)
Jun-22 @ 12:00 UTC
(-1 days ago)
Jun-21 @ 09:00 to Jun-22 @ 12:00
TAF AMD LFBO 210946Z 2109/2212 VRB03KT 6000 OVC005
Wind Visibility Clouds
Variable at 3 knots 6,003 meters
  • Overcast at 500' AGL
Becoming Jun-21 @ 09:00 to Jun-21 @ 10:00
BECMG 2109/2110 BKN013
Wind Visibility Clouds
Variable at 3 knots 6,003 meters
  • Broken at 1,300' AGL
Becoming Jun-21 @ 10:00 to Jun-21 @ 16:00
BECMG 2110/2112 27010KT SCT030
Wind Visibility Clouds
270° at 10 knots 6,003 meters
  • Scattered at 3,000' AGL
Temporary Jun-21 @ 12:00 to Jun-21 @ 16:00
TEMPO 2112/2116 SCT040TCU
Clouds
  • Scattered at 4,000' AGL
Becoming Jun-21 @ 16:00 to Jun-22 @ 12:00
BECMG 2116/2118 CAVOK
Wind Visibility Clouds Conditions
270° at 10 knots 10,000+ meters
  • No significant clouds
Temporary  (Probability 40%) Jun-22 @ 02:00 to Jun-22 @ 07:00
PROB40 TEMPO 2202/2207 BKN012
Clouds
  • Broken at 1,200' AGL
TAF AMD LFBO 210946Z 2109/2212 VRB03KT 6000 OVC005 BECMG 2109/2110 BKN013 BECMG 2110/2112 27010KT SCT030 TEMPO 2112/2116 SCT040TCU BECMG 2116/2118 CAVOK PROB40 TEMPO 2202/2207 BKN012
Issued Jun-21 @ 09:46 UTC
(13 minutes ago)
Valid From Jun-21 @ 09:00 UTC
(59 minutes ago)
Valid To Jun-22 @ 12:00 UTC
(-1 days ago)
Jun-21 @ 09:00 - Jun-22 @ 12:00
Wind Visibility
Variable at 3 knots 6,003 meters
Clouds
  • Overcast at 500' AGL
Becoming Jun-21 @ 09:00 - Jun-21 @ 10:00
Wind Visibility
Variable at 3 knots 6,003 meters
Clouds
  • Broken at 1,300' AGL
Becoming Jun-21 @ 10:00 - Jun-21 @ 16:00
Wind Visibility
270° at 10 knots 6,003 meters
Clouds
  • Scattered at 3,000' AGL
Temporary Jun-21 @ 12:00 - Jun-21 @ 16:00
Clouds
  • Scattered at 4,000' AGL
Becoming Jun-21 @ 16:00 - Jun-22 @ 12:00
Wind Visibility
270° at 10 knots 10,000+ meters
Clouds
  • No significant clouds
Conditions
Probability 40% Temporary Jun-22 @ 02:00 - Jun-22 @ 07:00
Clouds
  • Broken at 1,200' AGL